»·PEaware :: N362MA KLAS-KSZP

N362MA :: KLAS-KSZP

FLIGHT INFORMATION

Flight Status: Arrived
Operator: Privately registered:
United States
More flights under this callsign
Pilot: Tyler S. (27221)
Aircraft: SOCATA TBM-900
(TBM9)
More flights by this aircraft type
Origin: KLAS McCarran Intl
United States
Destination: KSZP Santa Paula
United States
More flights between these airports :: More routes between these airports
Route: +HEC PMD
File this flight plan on PilotEdge
Remarks:
Altitude:
(Current/Filed)
20,000ft
Speed:
(Current/Filed)
280kts
Departed: 28-Jan-20 06:33 PM
Arrived: 28-Jan-20 07:42 PM
Distance/Time
Traveled:
218nm/1:08
Distance/Time
To Go:
Arrived

Flight Plot

Page will automatically refresh every two minutes.

Flight plan parsing failed; only flown route is shown


Map Options




Map Legend


Flown Route
Filed Route
Departure Airport
Arrival Airport
Navaid (VOR, NDB)
Fix

Horizontal Profiles

Position Reports

Time Latitude Longitude Heading Altitude Ground
Speed
28-Jan-20 17:53 36.080635 -115.170624 270 2184ft 0kts
28-Jan-20 17:54 36.080635 -115.170624 270 2184ft 0kts
28-Jan-20 17:55 36.080635 -115.170624 270 2184ft 0kts
28-Jan-20 17:56 36.080635 -115.170624 270 2184ft 0kts
28-Jan-20 17:57 36.080635 -115.170624 270 2184ft 0kts
28-Jan-20 17:58 36.080635 -115.170624 270 2184ft 0kts
28-Jan-20 17:59 36.080635 -115.170624 270 2184ft 0kts
28-Jan-20 18:00 36.080635 -115.170624 270 2184ft 0kts
28-Jan-20 18:01 36.080635 -115.170624 270 2184ft 0kts
28-Jan-20 18:02 36.080635 -115.170624 270 2184ft 0kts
28-Jan-20 18:03 36.080635 -115.170624 270 2184ft 0kts
28-Jan-20 18:04 36.080635 -115.170624 270 2184ft 0kts
28-Jan-20 18:05 36.080635 -115.170624 270 2184ft 0kts
28-Jan-20 18:06 36.080635 -115.170624 270 2184ft 0kts
28-Jan-20 18:07 36.080635 -115.170624 270 2184ft 0kts
28-Jan-20 18:08 36.080635 -115.170624 270 2184ft 0kts
28-Jan-20 18:09 36.080635 -115.170624 270 2184ft 0kts
28-Jan-20 18:10 36.080635 -115.170624 270 2184ft 0kts
28-Jan-20 18:11 36.080635 -115.170624 270 2184ft 0kts
28-Jan-20 18:12 36.080635 -115.170624 270 2184ft 0kts
28-Jan-20 18:13 36.080635 -115.170624 270 2184ft 0kts
28-Jan-20 18:14 36.080635 -115.170624 270 2184ft 0kts
28-Jan-20 18:16 36.080635 -115.170624 270 2184ft 0kts
28-Jan-20 18:17 36.080635 -115.170624 270 2184ft 0kts
28-Jan-20 18:18 36.080635 -115.170624 270 2184ft 0kts
28-Jan-20 18:19 36.080635 -115.170624 270 2184ft 0kts
28-Jan-20 18:20 36.080635 -115.170624 270 2184ft 0kts
28-Jan-20 18:21 36.080635 -115.170624 270 2184ft 0kts
28-Jan-20 18:22 36.080635 -115.170624 270 2184ft 0kts
28-Jan-20 18:23 36.080635 -115.170624 270 2184ft 0kts
28-Jan-20 18:24 36.080635 -115.170624 270 2184ft 0kts
28-Jan-20 18:25 36.080635 -115.170624 270 2184ft 0kts
28-Jan-20 18:26 36.080635 -115.170624 270 2184ft 0kts
28-Jan-20 18:27 36.080635 -115.170624 270 2184ft 0kts
28-Jan-20 18:28 36.080635 -115.170624 270 2184ft 0kts
28-Jan-20 18:29 36.080635 -115.170624 270 2184ft 0kts
28-Jan-20 18:30 36.080654 -115.170424 118 2184ft 2kts
28-Jan-20 18:31 36.078608 -115.170862 201 2184ft 12kts
28-Jan-20 18:32 36.078019 -115.170033 91 2184ft 0kts
28-Jan-20 18:33 36.079450 -115.168014 25 2184ft 50kts
28-Jan-20 18:34 36.104731 -115.153831 27 3283ft 137kts
28-Jan-20 18:34 36.134659 -115.150172 308 4973ft 148kts
28-Jan-20 18:36 36.128985 -115.202693 211 7393ft 155kts
28-Jan-20 18:37 36.091824 -115.229212 211 9497ft 157kts
28-Jan-20 18:37 36.059338 -115.250981 211 11172ft 164kts
28-Jan-20 18:39 36.004661 -115.263278 191 13529ft 177kts
28-Jan-20 18:39 35.964856 -115.268417 191 15296ft 180kts
28-Jan-20 18:40 35.914636 -115.273856 191 17359ft 184kts
28-Jan-20 18:42 35.852601 -115.279677 191 19161ft 220kts
28-Jan-20 18:42 35.797046 -115.286461 191 19759ft 248kts
28-Jan-20 18:43 35.725454 -115.295521 191 20137ft 275kts
28-Jan-20 18:44 35.646281 -115.306275 191 20129ft 290kts
28-Jan-20 18:45 35.565174 -115.317291 191 20127ft 294kts
28-Jan-20 18:46 35.483481 -115.328418 191 20124ft 295kts
28-Jan-20 18:47 35.401527 -115.339562 191 20120ft 296kts
28-Jan-20 18:48 35.319652 -115.350797 191 20117ft 296kts
28-Jan-20 18:52 35.273568 -115.357225 191 20117ft 296kts
28-Jan-20 18:52 35.273568 -115.357225 191 20117ft 296kts
28-Jan-20 18:53 35.273568 -115.357225 191 20117ft 296kts
28-Jan-20 18:54 35.273568 -115.357225 191 20117ft 296kts
28-Jan-20 18:57 34.952675 -115.599105 260 20116ft 271kts
28-Jan-20 18:58 34.936764 -115.689426 259 20121ft 271kts
28-Jan-20 18:59 34.920747 -115.779621 259 20121ft 272kts
28-Jan-20 19:00 34.904649 -115.869845 259 20120ft 272kts
28-Jan-20 19:02 34.888447 -115.960256 259 20119ft 272kts
28-Jan-20 19:03 34.872226 -116.050252 260 20123ft 271kts
28-Jan-20 19:04 34.856003 -116.140050 260 20133ft 270kts
28-Jan-20 19:05 34.839761 -116.229467 260 20141ft 270kts
28-Jan-20 19:06 34.823599 -116.317997 260 20147ft 270kts
28-Jan-20 19:07 34.807121 -116.407973 260 20152ft 269kts
28-Jan-20 19:08 34.793683 -116.497344 266 20159ft 267kts
28-Jan-20 19:09 34.784927 -116.587203 266 20161ft 268kts
28-Jan-20 19:10 34.776045 -116.677790 265 20170ft 268kts
28-Jan-20 19:11 34.767119 -116.768009 265 20173ft 268kts
28-Jan-20 19:12 34.758096 -116.858431 266 20177ft 268kts
28-Jan-20 19:13 34.749077 -116.948354 266 20177ft 267kts
28-Jan-20 19:14 34.739990 -117.038123 266 20174ft 267kts
28-Jan-20 19:15 34.730825 -117.128004 266 20171ft 267kts
28-Jan-20 19:16 34.721653 -117.217405 266 20171ft 266kts
28-Jan-20 19:17 34.712413 -117.306687 266 20170ft 265kts
28-Jan-20 19:18 34.703340 -117.393825 266 20170ft 265kts
28-Jan-20 19:19 34.694003 -117.482815 266 20169ft 265kts
28-Jan-20 19:20 34.684585 -117.571916 266 20169ft 265kts
28-Jan-20 19:21 34.675118 -117.660824 266 20173ft 265kts
28-Jan-20 19:22 34.665609 -117.749630 266 20174ft 265kts
28-Jan-20 19:23 34.655990 -117.838744 266 20174ft 266kts
28-Jan-20 19:24 34.646320 -117.927691 266 20179ft 265kts
28-Jan-20 19:25 34.636553 -118.016524 267 20186ft 264kts
28-Jan-20 19:26 34.620111 -118.104086 257 20191ft 268kts
28-Jan-20 19:27 34.595985 -118.190009 257 20096ft 268kts
28-Jan-20 19:28 34.572957 -118.271613 258 18555ft 248kts
28-Jan-20 19:29 34.551006 -118.349453 258 17028ft 242kts
28-Jan-20 19:30 34.529165 -118.426599 257 15506ft 242kts
28-Jan-20 19:31 34.507194 -118.503945 257 14084ft 240kts
28-Jan-20 19:32 34.485333 -118.580671 257 14070ft 242kts
28-Jan-20 19:33 34.463641 -118.656618 256 14073ft 242kts
28-Jan-20 19:34 34.442514 -118.730381 257 12221ft 221kts
28-Jan-20 19:35 34.422891 -118.798844 255 10222ft 214kts
28-Jan-20 19:36 34.403398 -118.866531 254 8222ft 213kts
28-Jan-20 19:36 34.387244 -118.922536 254 6569ft 213kts
28-Jan-20 19:37 34.370850 -118.995089 281 2816ft 240kts
28-Jan-20 19:39 34.378276 -119.010610 168 1935ft 150kts
28-Jan-20 19:40 34.359173 -119.038729 237 1106ft 95kts
28-Jan-20 19:41 34.346414 -119.062701 237 248ft 44kts
28-Jan-20 19:41 34.346105 -119.063938 56 248ft 8kts
28-Jan-20 19:43 34.346842 -119.063021 149 248ft 0kts
28-Jan-20 19:44 34.346842 -119.063021 149 248ft 0kts
28-Jan-20 19:44 34.346842 -119.063021 149 248ft 0kts
28-Jan-20 19:46 34.346842 -119.063021 149 248ft 0kts
28-Jan-20 19:47 34.346842 -119.063021 149 248ft 0kts
28-Jan-20 19:48 34.346842 -119.063021 149 248ft 0kts
28-Jan-20 19:48 34.346842 -119.063021 149 248ft 0kts
28-Jan-20 19:49 34.346842 -119.063021 149 248ft 0kts
28-Jan-20 19:51 34.346842 -119.063021 149 248ft 0kts
28-Jan-20 19:52 34.346842 -119.063021 149 248ft 0kts
28-Jan-20 19:53 34.346842 -119.063021 149 248ft 0kts
28-Jan-20 19:54 34.346842 -119.063021 149 248ft 0kts
28-Jan-20 19:55 34.346842 -119.063021 149 248ft 0kts
28-Jan-20 19:55 34.346842 -119.063021 149 248ft 0kts

Navigation Log

Ident Type
Flight plan parsing failed, navigation log unavailable